sensor_id;sensor_type;location;lat;lon;timestamp;pressure;altitude;pressure_sealevel;temperature;humidity
20145;BME280;10233;50.814;6.590;2023-04-01T00:00:34;98120.41;;;10.68;100.00
20145;BME280;10233;50.814;6.590;2023-04-01T00:01:34;98127.53;;;10.62;100.00
20145;BME280;10233;50.814;6.590;2023-04-01T00:02:35;98119.59;;;10.67;100.00
20145;BME280;10233;50.814;6.590;2023-04-01T00:03:36;98118.81;;;10.67;100.00
20145;BME280;10233;50.814;6.590;2023-04-01T00:04:37;98127.03;;;10.65;100.00
20145;BME280;10233;50.814;6.590;2023-04-01T00:05:37;98121.69;;;10.60;100.00
20145;BME280;10233;50.814;6.590;2023-04-01T00:06:38;98114.00;;;10.64;100.00
20145;BME280;10233;50.814;6.590;2023-04-01T00:07:39;98123.31;;;10.66;100.00
20145;BME280;10233;50.814;6.590;2023-04-01T00:08:40;98115.13;;;10.73;100.00
20145;BME280;10233;50.814;6.590;2023-04-01T00:09:41;98115.91;;;10.68;100.00
20145;BME280;10233;50.814;6.590;2023-04-01T00:10:41;98118.56;;;10.68;100.00
20145;BME280;10233;50.814;6.590;2023-04-01T00:11:42;98119.31;;;10.64;100.00
20145;BME280;10233;50.814;6.590;2023-04-01T00:12:43;98118.78;;;10.62;100.00
20145;BME280;10233;50.814;6.590;2023-04-01T00:13:44;98120.13;;;10.64;100.00
20145;BME280;10233;50.814;6.590;2023-04-01T00:14:45;98120.13;;;10.64;100.00
20145;BME280;10233;50.814;6.590;2023-04-01T00:15:48;98116.69;;;10.69;100.00
20145;BME280;10233;50.814;6.590;2023-04-01T00:16:49;98115.09;;;10.68;100.00
20145;BME280;10233;50.814;6.590;2023-04-01T00:17:50;98122.78;;;10.64;100.00
20145;BME280;10233;50.814;6.590;2023-04-01T00:18:51;98120.13;;;10.64;100.00
20145;BME280;10233;50.814;6.590;2023-04-01T00:19:51;98123.56;;;10.65;100.00
20145;BME280;10233;50.814;6.590;2023-04-01T00:20:52;98119.34;;;10.69;100.00
20145;BME280;10233;50.814;6.590;2023-04-01T00:21:53;98112.69;;;10.66;100.00
20145;BME280;10233;50.814;6.590;2023-04-01T00:22:53;98106.28;;;10.62;100.00
20145;BME280;10233;50.814;6.590;2023-04-01T00:23:54;98110.63;;;10.73;100.00
20145;BME280;10233;50.814;6.590;2023-04-01T00:24:55;98122.28;;;10.72;100.00
20145;BME280;10233;50.814;6.590;2023-04-01T00:25:55;98119.91;;;10.71;100.00
20145;BME280;10233;50.814;6.590;2023-04-01T00:26:56;98108.97;;;10.67;100.00
20145;BME280;10233;50.814;6.590;2023-04-01T00:27:57;98107.41;;;10.71;100.00
20145;BME280;10233;50.814;6.590;2023-04-01T00:28:58;98113.03;;;10.80;100.00
20145;BME280;10233;50.814;6.590;2023-04-01T00:29:58;98107.16;;;10.73;100.00
20145;BME280;10233;50.814;6.590;2023-04-01T00:31:04;98107.44;;;10.76;100.00
20145;BME280;10233;50.814;6.590;2023-04-01T00:32:04;98102.66;;;10.73;100.00
20145;BME280;10233;50.814;6.590;2023-04-01T00:33:05;98101.59;;;10.74;100.00
20145;BME280;10233;50.814;6.590;2023-04-01T00:34:06;98102.91;;;10.72;100.00
20145;BME280;10233;50.814;6.590;2023-04-01T00:35:07;98096.03;;;10.76;100.00
20145;BME280;10233;50.814;6.590;2023-04-01T00:36:12;98104.28;;;10.79;100.00
20145;BME280;10233;50.814;6.590;2023-04-01T00:37:13;98101.63;;;10.79;100.00
20145;BME280;10233;50.814;6.590;2023-04-01T00:38:14;98097.88;;;10.75;100.00
20145;BME280;10233;50.814;6.590;2023-04-01T00:39:14;98106.38;;;10.77;100.00
20145;BME280;10233;50.814;6.590;2023-04-01T00:40:36;98098.19;;;10.84;100.00
20145;BME280;10233;50.814;6.590;2023-04-01T00:41:37;98100.25;;;10.72;100.00
20145;BME280;10233;50.814;6.590;2023-04-01T00:42:38;98101.56;;;10.69;100.00
20145;BME280;10233;50.814;6.590;2023-04-01T00:43:39;98096.25;;;10.69;100.00
20145;BME280;10233;50.814;6.590;2023-04-01T00:44:41;98098.34;;;10.67;100.00
20145;BME280;10233;50.814;6.590;2023-04-01T00:45:43;98100.75;;;10.69;100.00
20145;BME280;10233;50.814;6.590;2023-04-01T00:46:43;98098.69;;;10.76;100.00
20145;BME280;10233;50.814;6.590;2023-04-01T00:47:44;98104.28;;;10.79;100.00
20145;BME280;10233;50.814;6.590;2023-04-01T00:48:48;98098.38;;;10.72;100.00
20145;BME280;10233;50.814;6.590;2023-04-01T00:49:52;98100.50;;;10.70;100.00
20145;BME280;10233;50.814;6.590;2023-04-01T00:51:01;98113.28;;;10.73;100.00
20145;BME280;10233;50.814;6.590;2023-04-01T00:52:04;98115.97;;;10.78;100.00
20145;BME280;10233;50.814;6.590;2023-04-01T00:53:07;98111.66;;;10.72;100.00
20145;BME280;10233;50.814;6.590;2023-04-01T00:54:09;98097.03;;;10.70;100.00
20145;BME280;10233;50.814;6.590;2023-04-01T00:55:12;98104.75;;;10.71;100.00
20145;BME280;10233;50.814;6.590;2023-04-01T00:56:18;98104.47;;;10.68;100.00
20145;BME280;10233;50.814;6.590;2023-04-01T00:57:25;98096.25;;;10.69;100.00
20145;BME280;10233;50.814;6.590;2023-04-01T00:58:32;98108.22;;;10.72;100.00
20145;BME280;10233;50.814;6.590;2023-04-01T00:59:40;98099.69;;;10.70;100.00
20145;BME280;10233;50.814;6.590;2023-04-01T01:00:41;98110.06;;;10.71;100.00
20145;BME280;10233;50.814;6.590;2023-04-01T01:01:42;98104.47;;;10.68;100.00
20145;BME280;10233;50.814;6.590;2023-04-01T01:02:45;98110.31;;;10.70;100.00
20145;BME280;10233;50.814;6.590;2023-04-01T01:03:46;98106.59;;;10.66;100.00
20145;BME280;10233;50.814;6.590;2023-04-01T01:04:47;98101.31;;;10.71;100.00
20145;BME280;10233;50.814;6.590;2023-04-01T01:05:55;98105.22;;;10.63;100.00
20145;BME280;10233;50.814;6.590;2023-04-01T01:08:52;98109.19;;;10.61;100.00
20145;BME280;10233;50.814;6.590;2023-04-01T01:10:09;98107.34;;;10.61;100.00
20145;BME280;10233;50.814;6.590;2023-04-01T01:11:14;98107.88;;;10.63;100.00
20145;BME280;10233;50.814;6.590;2023-04-01T01:12:23;98111.06;;;10.60;100.00
20145;BME280;10233;50.814;6.590;2023-04-01T01:13:36;98112.41;;;10.63;100.00
20145;BME280;10233;50.814;6.590;2023-04-01T01:20:42;98109.19;;;10.61;100.00
20145;BME280;10233;50.814;6.590;2023-04-01T01:27:21;98110.81;;;10.62;100.00
20145;BME280;10233;50.814;6.590;2023-04-01T01:31:09;98107.94;;;10.68;100.00
20145;BME280;10233;50.814;6.590;2023-04-01T01:32:23;98099.91;;;10.63;100.00
20145;BME280;10233;50.814;6.590;2023-04-01T01:34:04;98103.09;;;10.60;100.00
20145;BME280;10233;50.814;6.590;2023-04-01T01:36:31;98111.31;;;10.59;100.00
20145;BME280;10233;50.814;6.590;2023-04-01T01:37:35;98110.81;;;10.62;100.00
20145;BME280;10233;50.814;6.590;2023-04-01T01:38:37;98115.31;;;10.61;100.00
20145;BME280;10233;50.814;6.590;2023-04-01T01:39:39;98098.03;;;10.59;100.00
20145;BME280;10233;50.814;6.590;2023-04-01T01:40:44;98104.88;;;10.55;100.00
20145;BME280;10233;50.814;6.590;2023-04-01T01:41:47;98103.50;;;10.47;100.00
20145;BME280;10233;50.814;6.590;2023-04-01T01:42:54;98098.03;;;10.59;100.00
20145;BME280;10233;50.814;6.590;2023-04-01T01:43:58;98103.59;;;10.57;100.00
20145;BME280;10233;50.814;6.590;2023-04-01T01:45:01;98111.00;;;10.55;100.00
20145;BME280;10233;50.814;6.590;2023-04-01T01:46:10;98104.97;;;10.65;100.00
20145;BME280;10233;50.814;6.590;2023-04-01T01:47:13;98105.94;;;10.54;100.00
20145;BME280;10233;50.814;6.590;2023-04-01T01:48:16;98104.38;;;10.58;100.00
20145;BME280;10233;50.814;6.590;2023-04-01T01:49:21;98104.16;;;10.59;100.00
20145;BME280;10233;50.814;6.590;2023-04-01T01:50:23;98111.78;;;10.56;100.00
20145;BME280;10233;50.814;6.590;2023-04-01T01:51:27;98103.78;;;10.51;100.00
20145;BME280;10233;50.814;6.590;2023-04-01T01:52:29;98106.97;;;10.48;100.00
20145;BME280;10233;50.814;6.590;2023-04-01T01:53:30;98103.25;;;10.49;100.00
20145;BME280;10233;50.814;6.590;2023-04-01T01:54:30;98100.09;;;10.52;100.00
20145;BME280;10233;50.814;6.590;2023-04-01T01:55:34;98101.94;;;10.51;100.00
20145;BME280;10233;50.814;6.590;2023-04-01T01:56:36;98093.69;;;10.48;100.00
20145;BME280;10233;50.814;6.590;2023-04-01T01:57:37;98105.38;;;10.47;100.00
20145;BME280;10233;50.814;6.590;2023-04-01T01:58:58;98101.63;;;10.43;100.00
20145;BME280;10233;50.814;6.590;2023-04-01T02:00:06;98099.78;;;10.48;100.00
20145;BME280;10233;50.814;6.590;2023-04-01T02:01:16;98097.66;;;10.45;100.00
20145;BME280;10233;50.814;6.590;2023-04-01T02:02:18;98097.91;;;10.44;100.00
20145;BME280;10233;50.814;6.590;2023-04-01T02:03:21;98106.72;;;10.49;100.00
20145;BME280;10233;50.814;6.590;2023-04-01T02:04:23;98100.84;;;10.47;100.00
20145;BME280;10233;50.814;6.590;2023-04-01T02:05:28;98108.81;;;10.47;100.00
20145;BME280;10233;50.814;6.590;2023-04-01T02:06:38;98101.63;;;10.43;100.00
20145;BME280;10233;50.814;6.590;2023-04-01T02:07:43;98105.06;;;10.43;100.00
20145;BME280;10233;50.814;6.590;2023-04-01T02:08:49;98107.16;;;10.36;100.00
20145;BME280;10233;50.814;6.590;2023-04-01T02:09:52;98102.56;;;10.27;100.00
20145;BME280;10233;50.814;6.590;2023-04-01T02:10:59;98107.09;;;10.31;100.00
20145;BME280;10233;50.814;6.590;2023-04-01T02:12:06;98103.63;;;10.31;100.00
20145;BME280;10233;50.814;6.590;2023-04-01T02:14:03;98103.88;;;10.24;100.00
20145;BME280;10233;50.814;6.590;2023-04-01T02:14:54;98096.94;;;10.23;100.00
20145;BME280;10233;50.814;6.590;2023-04-01T02:16:00;98093.94;;;10.15;100.00
20145;BME280;10233;50.814;6.590;2023-04-01T02:17:09;98105.97;;;10.22;100.00
20145;BME280;10233;50.814;6.590;2023-04-01T02:18:13;98095.31;;;10.17;100.00
20145;BME280;10233;50.814;6.590;2023-04-01T02:19:18;98105.34;;;10.10;100.00
20145;BME280;10233;50.814;6.590;2023-04-01T02:20:26;98100.56;;;10.12;100.00
20145;BME280;10233;50.814;6.590;2023-04-01T02:21:31;98092.84;;;10.11;100.00
20145;BME280;10233;50.814;6.590;2023-04-01T02:22:39;98096.66;;;10.20;100.00
20145;BME280;10233;50.814;6.590;2023-04-01T02:23:42;98091.78;;;10.12;100.00
20145;BME280;10233;50.814;6.590;2023-04-01T02:24:47;98097.09;;;10.12;100.00
20145;BME280;10233;50.814;6.590;2023-04-01T02:25:49;98102.38;;;10.07;100.00
20145;BME280;10233;50.814;6.590;2023-04-01T02:26:51;98091.94;;;10.00;100.00
20145;BME280;10233;50.814;6.590;2023-04-01T02:27:54;98100.53;;;10.07;100.00
20145;BME280;10233;50.814;6.590;2023-04-01T02:28:58;98082.19;;;10.06;100.00
20145;BME280;10233;50.814;6.590;2023-04-01T02:30:00;98102.69;;;10.10;100.00
20145;BME280;10233;50.814;6.590;2023-04-01T02:31:01;98088.66;;;10.15;100.00
20145;BME280;10233;50.814;6.590;2023-04-01T02:32:03;98088.66;;;10.15;100.00
20145;BME280;10233;50.814;6.590;2023-04-01T02:33:05;98086.00;;;10.15;100.00
20145;BME280;10233;50.814;6.590;2023-04-01T02:34:06;98091.59;;;10.18;100.00
20145;BME280;10233;50.814;6.590;2023-04-01T02:35:08;98101.44;;;10.18;100.00
20145;BME280;10233;50.814;6.590;2023-04-01T02:36:12;98076.44;;;10.14;100.00
20145;BME280;10233;50.814;6.590;2023-04-01T02:37:14;98083.38;;;10.20;100.00
20145;BME280;10233;50.814;6.590;2023-04-01T02:38:15;98080.97;;;10.18;100.00
20145;BME280;10233;50.814;6.590;2023-04-01T02:39:16;98085.00;;;10.26;100.00
20145;BME280;10233;50.814;6.590;2023-04-01T02:40:18;98086.28;;;10.18;100.00
20145;BME280;10233;50.814;6.590;2023-04-01T02:41:18;98082.03;;;10.17;100.00
20145;BME280;10233;50.814;6.590;2023-04-01T02:42:19;98085.19;;;10.14;100.00
20145;BME280;10233;50.814;6.590;2023-04-01T02:43:20;98082.53;;;10.14;100.00
20145;BME280;10233;50.814;6.590;2023-04-01T02:44:21;98083.03;;;10.11;100.00
20145;BME280;10233;50.814;6.590;2023-04-01T02:45:22;98087.78;;;10.09;100.00
20145;BME280;10233;50.814;6.590;2023-04-01T02:46:22;98081.44;;;10.10;100.00
20145;BME280;10233;50.814;6.590;2023-04-01T02:47:23;98087.53;;;10.11;100.00
20145;BME280;10233;50.814;6.590;2023-04-01T02:48:24;98082.53;;;10.14;100.00
20145;BME280;10233;50.814;6.590;2023-04-01T02:49:24;98088.34;;;10.11;100.00
20145;BME280;10233;50.814;6.590;2023-04-01T02:50:25;98083.03;;;10.11;100.00
20145;BME280;10233;50.814;6.590;2023-04-01T02:51:26;98086.75;;;10.10;100.00
20145;BME280;10233;50.814;6.590;2023-04-01T02:52:28;98088.41;;;10.16;100.00
20145;BME280;10233;50.814;6.590;2023-04-01T02:53:30;98085.50;;;10.18;100.00
20145;BME280;10233;50.814;6.590;2023-04-01T02:54:31;98085.75;;;10.16;100.00
20145;BME280;10233;50.814;6.590;2023-04-01T02:55:32;98081.22;;;10.17;100.00
20145;BME280;10233;50.814;6.590;2023-04-01T02:56:33;98086.25;;;10.13;100.00
20145;BME280;10233;50.814;6.590;2023-04-01T02:57:33;98083.13;;;10.21;100.00
20145;BME280;10233;50.814;6.590;2023-04-01T02:58:34;98096.13;;;10.18;100.00
20145;BME280;10233;50.814;6.590;2023-04-01T02:59:35;98091.34;;;10.20;100.00
20145;BME280;10233;50.814;6.590;2023-04-01T03:00:36;98092.69;;;10.22;100.00
20145;BME280;10233;50.814;6.590;2023-04-01T03:01:37;98088.16;;;10.18;100.00
20145;BME280;10233;50.814;6.590;2023-04-01T03:02:38;98095.56;;;10.16;100.00
20145;BME280;10233;50.814;6.590;2023-04-01T03:03:39;98088.41;;;10.16;100.00
20145;BME280;10233;50.814;6.590;2023-04-01T03:04:40;98088.94;;;10.18;100.00
20145;BME280;10233;50.814;6.590;2023-04-01T03:05:40;98099.59;;;10.23;100.00
20145;BME280;10233;50.814;6.590;2023-04-01T03:06:41;98092.94;;;10.21;100.00
20145;BME280;10233;50.814;6.590;2023-04-01T03:07:42;98095.56;;;10.16;100.00
20145;BME280;10233;50.814;6.590;2023-04-01T03:08:43;98103.75;;;10.14;100.00
20145;BME280;10233;50.814;6.590;2023-04-01T03:09:44;98093.66;;;10.11;100.00
20145;BME280;10233;50.814;6.590;2023-04-01T03:10:45;98092.69;;;10.22;100.00
20145;BME280;10233;50.814;6.590;2023-04-01T03:11:45;98096.13;;;10.18;100.00
20145;BME280;10233;50.814;6.590;2023-04-01T03:12:46;98094.50;;;10.17;100.00
20145;BME280;10233;50.814;6.590;2023-04-01T03:13:47;98097.97;;;10.17;100.00
20145;BME280;10233;50.814;6.590;2023-04-01T03:14:47;98092.66;;;10.17;100.00
20145;BME280;10233;50.814;6.590;2023-04-01T03:15:48;98104.41;;;10.26;100.00
20145;BME280;10233;50.814;6.590;2023-04-01T03:16:48;98099.84;;;10.22;100.00
20145;BME280;10233;50.814;6.590;2023-04-01T03:17:50;98096.44;;;10.26;100.00
20145;BME280;10233;50.814;6.590;2023-04-01T03:18:51;98101.25;;;10.29;100.00
20145;BME280;10233;50.814;6.590;2023-04-01T03:19:53;98107.09;;;10.31;100.00
20145;BME280;10233;50.814;6.590;2023-04-01T03:20:53;98099.09;;;10.26;100.00
20145;BME280;10233;50.814;6.590;2023-04-01T03:21:54;98103.91;;;10.29;100.00
20145;BME280;10233;50.814;6.590;2023-04-01T03:22:54;98095.13;;;10.29;100.00
20145;BME280;10233;50.814;6.590;2023-04-01T03:23:55;98116.19;;;10.35;100.00
20145;BME280;10233;50.814;6.590;2023-04-01T03:24:57;98111.13;;;10.34;100.00
20145;BME280;10233;50.814;6.590;2023-04-01T03:25:57;98107.34;;;10.30;100.00
20145;BME280;10233;50.814;6.590;2023-04-01T03:26:58;98108.88;;;10.21;100.00
20145;BME280;10233;50.814;6.590;2023-04-01T03:27:59;98104.94;;;10.28;100.00
20145;BME280;10233;50.814;6.590;2023-04-01T03:29:00;98103.56;;;10.21;100.00
20145;BME280;10233;50.814;6.590;2023-04-01T03:30:02;98104.31;;;10.16;100.00
20145;BME280;10233;50.814;6.590;2023-04-01T03:31:05;98103.25;;;10.17;100.00
20145;BME280;10233;50.814;6.590;2023-04-01T03:32:14;98114.41;;;10.19;100.00
20145;BME280;10233;50.814;6.590;2023-04-01T03:33:15;98105.38;;;10.15;100.00
20145;BME280;10233;50.814;6.590;2023-04-01T03:34:15;98114.94;;;10.16;100.00
20145;BME280;10233;50.814;6.590;2023-04-01T03:35:16;98113.88;;;10.17;100.00
20145;BME280;10233;50.814;6.590;2023-04-01T03:36:17;98110.16;;;10.18;100.00
20145;BME280;10233;50.814;6.590;2023-04-01T03:37:18;98115.00;;;10.21;100.00
20145;BME280;10233;50.814;6.590;2023-04-01T03:38:19;98118.34;;;10.12;100.00
20145;BME280;10233;50.814;6.590;2023-04-01T03:39:19;98109.84;;;10.10;100.00
20145;BME280;10233;50.814;6.590;2023-04-01T03:40:20;98119.41;;;10.11;100.00
20145;BME280;10233;50.814;6.590;2023-04-01T03:41:21;98110.91;;;10.09;100.00
20145;BME280;10233;50.814;6.590;2023-04-01T03:42:22;98121.56;;;10.14;100.00
20145;BME280;10233;50.814;6.590;2023-04-01T03:43:23;98120.22;;;10.11;100.00
20145;BME280;10233;50.814;6.590;2023-04-01T03:44:23;98117.03;;;10.14;100.00
20145;BME280;10233;50.814;6.590;2023-04-01T03:45:27;98117.56;;;10.11;100.00
20145;BME280;10233;50.814;6.590;2023-04-01T03:46:27;98123.94;;;10.10;100.00
20145;BME280;10233;50.814;6.590;2023-04-01T03:47:28;98114.28;;;10.04;100.00
20145;BME280;10233;50.814;6.590;2023-04-01T03:48:29;98122.81;;;10.06;100.00
20145;BME280;10233;50.814;6.590;2023-04-01T03:49:30;98122.00;;;10.06;100.00
20145;BME280;10233;50.814;6.590;2023-04-01T03:50:34;98120.69;;;10.08;100.00
20145;BME280;10233;50.814;6.590;2023-04-01T03:51:35;98117.00;;;10.09;100.00
20145;BME280;10233;50.814;6.590;2023-04-01T03:52:35;98119.09;;;10.07;100.00
20145;BME280;10233;50.814;6.590;2023-04-01T03:53:36;98121.31;;;10.15;100.00
20145;BME280;10233;50.814;6.590;2023-04-01T03:54:39;98126.53;;;10.05;100.00
20145;BME280;10233;50.814;6.590;2023-04-01T03:55:40;98112.19;;;10.06;100.00
20145;BME280;10233;50.814;6.590;2023-04-01T03:56:41;98118.03;;;10.08;100.00
20145;BME280;10233;50.814;6.590;2023-04-01T03:57:42;98125.53;;;10.11;100.00
20145;BME280;10233;50.814;6.590;2023-04-01T03:58:52;98126.91;;;10.19;100.00
20145;BME280;10233;50.814;6.590;2023-04-01T03:59:52;98121.81;;;10.12;100.00
20145;BME280;10233;50.814;6.590;2023-04-01T04:00:53;98119.44;;;10.16;100.00
20145;BME280;10233;50.814;6.590;2023-04-01T04:01:54;98119.72;;;10.19;100.00
20145;BME280;10233;50.814;6.590;2023-04-01T04:02:55;98115.78;;;10.22;100.00
20145;BME280;10233;50.814;6.590;2023-04-01T04:04:02;98112.03;;;10.18;100.00
20145;BME280;10233;50.814;6.590;2023-04-01T04:05:03;98127.16;;;10.17;100.00
20145;BME280;10233;50.814;6.590;2023-04-01T04:06:04;98120.78;;;10.18;100.00
20145;BME280;10233;50.814;6.590;2023-04-01T04:07:05;98116.84;;;10.21;100.00
20145;BME280;10233;50.814;6.590;2023-04-01T04:08:22;98121.59;;;10.19;100.00
20145;BME280;10233;50.814;6.590;2023-04-01T04:09:23;98119.16;;;10.12;100.00
20145;BME280;10233;50.814;6.590;2023-04-01T04:10:24;98120.00;;;10.18;100.00
20145;BME280;10233;50.814;6.590;2023-04-01T04:11:25;98117.69;;;10.26;100.00
20145;BME280;10233;50.814;6.590;2023-04-01T04:12:27;98121.31;;;10.15;100.00
20145;BME280;10233;50.814;6.590;2023-04-01T04:13:28;98128.25;;;10.21;100.00
20145;BME280;10233;50.814;6.590;2023-04-01T04:14:34;98126.72;;;10.25;100.00
20145;BME280;10233;50.814;6.590;2023-04-01T04:15:35;98117.94;;;10.25;100.00
20145;BME280;10233;50.814;6.590;2023-04-01T04:16:36;98121.41;;;10.25;100.00
20145;BME280;10233;50.814;6.590;2023-04-01T04:17:40;98126.91;;;10.19;100.00
20145;BME280;10233;50.814;6.590;2023-04-01T04:18:41;98128.06;;;10.28;100.00
20145;BME280;10233;50.814;6.590;2023-04-01T04:19:42;98122.19;;;10.26;100.00
20145;BME280;10233;50.814;6.590;2023-04-01T04:20:47;98137.81;;;10.22;100.00
20145;BME280;10233;50.814;6.590;2023-04-01T04:21:52;98134.63;;;10.20;100.00
20145;BME280;10233;50.814;6.590;2023-04-01T04:22:53;98128.81;;;10.23;100.00
20145;BME280;10233;50.814;6.590;2023-04-01T04:23:53;98134.31;;;10.17;100.00
20145;BME280;10233;50.814;6.590;2023-04-01T04:24:56;98135.66;;;10.19;100.00
20145;BME280;10233;50.814;6.590;2023-04-01T04:26:00;98136.72;;;10.18;100.00
20145;BME280;10233;50.814;6.590;2023-04-01T04:27:03;98136.53;;;10.25;100.00
20145;BME280;10233;50.814;6.590;2023-04-01T04:28:04;98126.72;;;10.25;100.00
20145;BME280;10233;50.814;6.590;2023-04-01T04:29:05;98141.59;;;10.26;100.00
20145;BME280;10233;50.814;6.590;2023-04-01T04:30:06;98138.88;;;10.21;100.00
20145;BME280;10233;50.814;6.590;2023-04-01T04:31:08;98135.22;;;10.27;100.00
20145;BME280;10233;50.814;6.590;2023-04-01T04:32:10;98127.44;;;10.21;100.00
20145;BME280;10233;50.814;6.590;2023-04-01T04:33:13;98138.41;;;10.24;100.00
20145;BME280;10233;50.814;6.590;2023-04-01T04:34:14;98136.81;;;10.28;100.00
20145;BME280;10233;50.814;6.590;2023-04-01T04:35:15;98138.44;;;10.29;100.00
20145;BME280;10233;50.814;6.590;2023-04-01T04:36:15;98136.81;;;10.28;100.00
20145;BME280;10233;50.814;6.590;2023-04-01T04:37:17;98136.22;;;10.21;100.00
20145;BME280;10233;50.814;6.590;2023-04-01T04:38:17;98141.63;;;10.31;100.00
20145;BME280;10233;50.814;6.590;2023-04-01T04:39:18;98142.41;;;10.27;100.00
20145;BME280;10233;50.814;6.590;2023-04-01T04:40:20;98139.22;;;10.30;100.00
20145;BME280;10233;50.814;6.590;2023-04-01T04:41:20;98146.44;;;10.34;100.00
20145;BME280;10233;50.814;6.590;2023-04-01T04:42:23;98141.34;;;10.28;100.00
20145;BME280;10233;50.814;6.590;2023-04-01T04:43:29;98147.44;;;10.28;100.00
20145;BME280;10233;50.814;6.590;2023-04-01T04:44:31;98146.94;;;10.31;100.00
20145;BME280;10233;50.814;6.590;2023-04-01T04:45:32;98143.75;;;10.29;100.00
20145;BME280;10233;50.814;6.590;2023-04-01T04:46:33;98148.03;;;10.35;100.00
20145;BME280;10233;50.814;6.590;2023-04-01T04:47:45;98152.06;;;10.38;100.00
20145;BME280;10233;50.814;6.590;2023-04-01T04:48:46;98150.69;;;10.35;100.00
20145;BME280;10233;50.814;6.590;2023-04-01T04:49:47;98144.53;;;10.30;100.00
20145;BME280;10233;50.814;6.590;2023-04-01T04:50:48;98142.72;;;10.35;100.00
20145;BME280;10233;50.814;6.590;2023-04-01T04:51:50;98151.97;;;10.28;100.00
20145;BME280;10233;50.814;6.590;2023-04-01T04:52:56;98152.84;;;10.38;100.00
20145;BME280;10233;50.814;6.590;2023-04-01T04:53:57;98159.19;;;10.37;100.00
20145;BME280;10233;50.814;6.590;2023-04-01T04:55:12;98165.09;;;10.39;100.00
20145;BME280;10233;50.814;6.590;2023-04-01T04:56:20;98153.41;;;10.40;100.00
20145;BME280;10233;50.814;6.590;2023-04-01T04:57:28;98165.88;;;10.40;100.00
20145;BME280;10233;50.814;6.590;2023-04-01T04:58:29;98160.84;;;10.43;100.00
20145;BME280;10233;50.814;6.590;2023-04-01T04:59:30;98162.91;;;10.36;100.00
20145;BME280;10233;50.814;6.590;2023-04-01T05:00:46;98164.22;;;10.34;100.00
20145;BME280;10233;50.814;6.590;2023-04-01T05:01:54;98172.47;;;10.37;100.00
20145;BME280;10233;50.814;6.590;2023-04-01T05:02:54;98163.13;;;10.30;100.00
20145;BME280;10233;50.814;6.590;2023-04-01T05:03:55;98162.34;;;10.29;100.00
20145;BME280;10233;50.814;6.590;2023-04-01T05:04:56;98176.16;;;10.31;100.00
20145;BME280;10233;50.814;6.590;2023-04-01T05:05:56;98167.31;;;10.26;100.00
20145;BME280;10233;50.814;6.590;2023-04-01T05:06:58;98173.69;;;10.25;100.00
20145;BME280;10233;50.814;6.590;2023-04-01T05:07:58;98173.66;;;10.20;100.00
20145;BME280;10233;50.814;6.590;2023-04-01T05:08:59;98172.34;;;10.22;100.00
20145;BME280;10233;50.814;6.590;2023-04-01T05:10:00;98167.91;;;10.28;100.00
20145;BME280;10233;50.814;6.590;2023-04-01T05:11:02;98167.38;;;10.31;100.00
20145;BME280;10233;50.814;6.590;2023-04-01T05:12:06;98167.59;;;10.24;100.00
20145;BME280;10233;50.814;6.590;2023-04-01T05:13:27;98173.00;;;10.34;100.00
20145;BME280;10233;50.814;6.590;2023-04-01T05:14:27;98170.50;;;10.23;100.00
20145;BME280;10233;50.814;6.590;2023-04-01T05:15:41;98168.34;;;10.20;100.00
20145;BME280;10233;50.814;6.590;2023-04-01T05:16:41;98170.75;;;10.21;100.00
20145;BME280;10233;50.814;6.590;2023-04-01T05:17:43;98163.88;;;10.25;100.00
20145;BME280;10233;50.814;6.590;2023-04-01T05:18:44;98174.78;;;10.29;100.00
20145;BME280;10233;50.814;6.590;2023-04-01T05:19:45;98177.47;;;10.29;100.00
20145;BME280;10233;50.814;6.590;2023-04-01T05:20:50;98179.00;;;10.25;100.00
20145;BME280;10233;50.814;6.590;2023-04-01T05:21:52;98176.31;;;10.20;100.00
20145;BME280;10233;50.814;6.590;2023-04-01T05:22:57;98175.84;;;10.28;100.00
20145;BME280;10233;50.814;6.590;2023-04-01T05:23:58;98171.91;;;10.30;100.00
20145;BME280;10233;50.814;6.590;2023-04-01T05:25:03;98179.28;;;10.28;100.00
20145;BME280;10233;50.814;6.590;2023-04-01T05:26:10;98192.84;;;10.27;100.00
20145;BME280;10233;50.814;6.590;2023-04-01T05:27:11;98193.53;;;10.17;100.00
20145;BME280;10233;50.814;6.590;2023-04-01T05:28:14;98185.31;;;10.19;100.00
20145;BME280;10233;50.814;6.590;2023-04-01T05:29:16;98191.97;;;10.21;100.00
20145;BME280;10233;50.814;6.590;2023-04-01T05:30:20;98190.63;;;10.19;100.00
20145;BME280;10233;50.814;6.590;2023-04-01T05:31:57;98189.13;;;10.28;100.00
20145;BME280;10233;50.814;6.590;2023-04-01T05:32:57;98190.19;;;10.27;100.00
20145;BME280;10233;50.814;6.590;2023-04-01T05:33:58;98187.84;;;10.30;100.00
20145;BME280;10233;50.814;6.590;2023-04-01T05:34:59;98185.72;;;10.32;100.00
20145;BME280;10233;50.814;6.590;2023-04-01T05:36:25;98195.22;;;10.28;100.00
20145;BME280;10233;50.814;6.590;2023-04-01T05:37:29;98196.53;;;10.26;100.00
20145;BME280;10233;50.814;6.590;2023-04-01T05:38:30;98193.13;;;10.30;100.00
20145;BME280;10233;50.814;6.590;2023-04-01T05:39:30;98191.78;;;10.28;100.00
20145;BME280;10233;50.814;6.590;2023-04-01T05:40:32;98200.81;;;10.27;100.00
20145;BME280;10233;50.814;6.590;2023-04-01T05:41:35;98200.00;;;10.26;100.00
20145;BME280;10233;50.814;6.590;2023-04-01T05:42:36;98196.03;;;10.29;100.00
20145;BME280;10233;50.814;6.590;2023-04-01T05:43:37;98192.22;;;10.20;100.00
20145;BME280;10233;50.814;6.590;2023-04-01T05:44:57;98200.72;;;10.22;100.00
20145;BME280;10233;50.814;6.590;2023-04-01T05:46:16;98201.19;;;10.14;100.00
20145;BME280;10233;50.814;6.590;2023-04-01T05:47:26;98197.72;;;10.13;100.00
20145;BME280;10233;50.814;6.590;2023-04-01T05:48:27;98200.44;;;10.18;100.00